sensor_id;sensor_type;location;lat;lon;timestamp;pressure;altitude;pressure_sealevel;temperature;humidity
39301;BME280;25019;42.626;23.380;2023-05-29T00:01:08;94239.03;;;12.05;100.00
39301;BME280;25019;42.626;23.380;2023-05-29T00:03:34;94243.53;;;11.99;100.00
39301;BME280;25019;42.626;23.380;2023-05-29T00:06:04;94243.81;;;12.03;100.00
39301;BME280;25019;42.626;23.380;2023-05-29T00:08:31;94231.56;;;12.02;100.00
39301;BME280;25019;42.626;23.380;2023-05-29T00:10:57;94236.38;;;12.05;100.00
39301;BME280;25019;42.626;23.380;2023-05-29T00:13:23;94235.03;;;12.07;100.00
39301;BME280;25019;42.626;23.380;2023-05-29T00:15:49;94244.09;;;12.06;100.00
39301;BME280;25019;42.626;23.380;2023-05-29T00:18:14;94240.63;;;12.06;100.00
39301;BME280;25019;42.626;23.380;2023-05-29T00:20:40;94169.63;;;11.53;100.00
39301;BME280;25019;42.626;23.380;2023-05-29T00:23:05;94246.75;;;12.06;100.00
39301;BME280;25019;42.626;23.380;2023-05-29T00:25:31;94247.81;;;12.05;100.00
39301;BME280;25019;42.626;23.380;2023-05-29T00:27:57;94049.66;;;10.75;100.00
39301;BME280;25019;42.626;23.380;2023-05-29T00:30:23;94227.56;;;11.99;100.00
39301;BME280;25019;42.626;23.380;2023-05-29T00:32:49;94144.31;;;11.40;100.00
39301;BME280;25019;42.626;23.380;2023-05-29T00:35:15;94232.34;;;11.97;100.00
39301;BME280;25019;42.626;23.380;2023-05-29T00:37:40;94231.03;;;11.99;100.00
39301;BME280;25019;42.626;23.380;2023-05-29T00:40:06;94161.88;;;11.46;100.00
39301;BME280;25019;42.626;23.380;2023-05-29T00:42:32;94240.56;;;11.95;100.00
39301;BME280;25019;42.626;23.380;2023-05-29T00:44:58;94231.50;;;11.91;100.00
39301;BME280;25019;42.626;23.380;2023-05-29T00:47:24;94150.44;;;11.41;100.00
39301;BME280;25019;42.626;23.380;2023-05-29T00:49:51;94244.88;;;12.02;100.00
39301;BME280;25019;42.626;23.380;2023-05-29T00:52:18;94226.44;;;11.90;100.00
39301;BME280;25019;42.626;23.380;2023-05-29T00:54:45;94190.94;;;11.63;100.00
39301;BME280;25019;42.626;23.380;2023-05-29T00:57:12;94233.88;;;11.88;100.00
39301;BME280;25019;42.626;23.380;2023-05-29T00:59:39;94217.34;;;11.80;100.00
39301;BME280;25019;42.626;23.380;2023-05-29T01:02:06;94153.59;;;11.37;100.00
39301;BME280;25019;42.626;23.380;2023-05-29T01:04:32;94218.41;;;11.79;100.00
39301;BME280;25019;42.626;23.380;2023-05-29T01:07:00;94217.88;;;11.77;100.00
39301;BME280;25019;42.626;23.380;2023-05-29T01:09:28;94216.00;;;11.73;100.00
39301;BME280;25019;42.626;23.380;2023-05-29T01:12:08;94121.53;;;11.06;100.00
39301;BME280;25019;42.626;23.380;2023-05-29T01:17:40;94230.81;;;11.53;100.00
39301;BME280;25019;42.626;23.380;2023-05-29T01:20:37;94231.84;;;11.47;100.00
39301;BME280;25019;42.626;23.380;2023-05-29T01:23:23;94229.94;;;11.42;100.00
39301;BME280;25019;42.626;23.380;2023-05-29T01:28:52;94237.38;;;11.45;100.00
39301;BME280;25019;42.626;23.380;2023-05-29T01:31:25;94227.56;;;11.46;100.00
39301;BME280;25019;42.626;23.380;2023-05-29T01:33:58;94193.44;;;11.32;100.00
39301;BME280;25019;42.626;23.380;2023-05-29T01:36:25;94213.75;;;11.49;100.00
39301;BME280;25019;42.626;23.380;2023-05-29T01:38:53;94224.66;;;11.52;100.00
39301;BME280;25019;42.626;23.380;2023-05-29T01:41:20;94224.66;;;11.52;100.00
39301;BME280;25019;42.626;23.380;2023-05-29T01:43:47;94221.47;;;11.50;100.00
39301;BME280;25019;42.626;23.380;2023-05-29T01:46:14;94217.78;;;11.57;100.00
39301;BME280;25019;42.626;23.380;2023-05-29T01:48:43;94224.97;;;11.61;100.00
39301;BME280;25019;42.626;23.380;2023-05-29T01:51:10;94185.50;;;11.37;100.00
39301;BME280;25019;42.626;23.380;2023-05-29T01:53:37;94209.31;;;11.65;100.00
39301;BME280;25019;42.626;23.380;2023-05-29T01:56:04;94216.78;;;11.73;100.00
39301;BME280;25019;42.626;23.380;2023-05-29T01:58:31;94212.25;;;11.68;100.00
39301;BME280;25019;42.626;23.380;2023-05-29T02:00:58;94057.84;;;10.69;100.00
39301;BME280;25019;42.626;23.380;2023-05-29T02:03:24;94194.41;;;11.64;100.00
39301;BME280;25019;42.626;23.380;2023-05-29T02:05:50;94230.97;;;11.84;100.00
39301;BME280;25019;42.626;23.380;2023-05-29T02:08:15;94031.25;;;10.63;100.00
39301;BME280;25019;42.626;23.380;2023-05-29T02:10:41;94212.06;;;11.86;100.00
39301;BME280;25019;42.626;23.380;2023-05-29T02:13:07;94185.41;;;11.75;100.00
39301;BME280;25019;42.626;23.380;2023-05-29T02:15:33;94224.06;;;11.98;100.00
39301;BME280;25019;42.626;23.380;2023-05-29T02:17:58;94214.00;;;12.01;100.00
39301;BME280;25019;42.626;23.380;2023-05-29T02:20:27;94217.44;;;12.01;100.00
39301;BME280;25019;42.626;23.380;2023-05-29T02:22:53;94160.91;;;11.68;100.00
39301;BME280;25019;42.626;23.380;2023-05-29T02:25:19;94136.38;;;11.50;100.00
39301;BME280;25019;42.626;23.380;2023-05-29T02:27:44;94208.94;;;12.04;100.00
39301;BME280;25019;42.626;23.380;2023-05-29T02:30:12;94068.19;;;11.13;100.00
39301;BME280;25019;42.626;23.380;2023-05-29T02:32:40;94224.13;;;12.14;100.00
39301;BME280;25019;42.626;23.380;2023-05-29T02:35:06;94219.63;;;12.14;100.00
39301;BME280;25019;42.626;23.380;2023-05-29T02:37:32;94217.75;;;12.15;100.00
39301;BME280;25019;42.626;23.380;2023-05-29T02:39:58;94222.03;;;12.16;100.00
39301;BME280;25019;42.626;23.380;2023-05-29T02:42:23;94206.81;;;12.06;100.00
39301;BME280;25019;42.626;23.380;2023-05-29T02:44:49;94229.47;;;12.19;100.00
39301;BME280;25019;42.626;23.380;2023-05-29T02:47:17;94145.19;;;11.61;100.00
39301;BME280;25019;42.626;23.380;2023-05-29T02:49:42;94153.47;;;11.65;100.00
39301;BME280;25019;42.626;23.380;2023-05-29T02:52:08;94227.63;;;12.14;100.00
39301;BME280;25019;42.626;23.380;2023-05-29T02:54:33;94218.00;;;12.08;100.00
39301;BME280;25019;42.626;23.380;2023-05-29T02:56:59;94203.63;;;12.04;100.00
39301;BME280;25019;42.626;23.380;2023-05-29T02:59:25;94231.34;;;12.13;100.00
39301;BME280;25019;42.626;23.380;2023-05-29T03:01:51;94211.81;;;11.92;100.00
39301;BME280;25019;42.626;23.380;2023-05-29T03:04:17;94184.56;;;11.64;100.00
39301;BME280;25019;42.626;23.380;2023-05-29T03:06:43;94225.91;;;11.88;100.00
39301;BME280;25019;42.626;23.380;2023-05-29T03:09:08;94122.38;;;11.07;100.00
39301;BME280;25019;42.626;23.380;2023-05-29T03:11:34;94244.28;;;11.94;100.00
39301;BME280;25019;42.626;23.380;2023-05-29T03:14:02;94161.59;;;11.43;100.00
39301;BME280;25019;42.626;23.380;2023-05-29T03:16:27;94240.38;;;12.07;100.00
39301;BME280;25019;42.626;23.380;2023-05-29T03:18:55;94238.53;;;12.18;100.00
39301;BME280;25019;42.626;23.380;2023-05-29T03:21:21;94226.84;;;12.24;100.00
39301;BME280;25019;42.626;23.380;2023-05-29T03:23:47;94227.41;;;12.32;100.00
39301;BME280;25019;42.626;23.380;2023-05-29T03:26:13;94206.09;;;12.26;100.00
39301;BME280;25019;42.626;23.380;2023-05-29T03:28:40;94230.06;;;12.42;100.00
39301;BME280;25019;42.626;23.380;2023-05-29T03:31:07;94224.22;;;12.45;100.00
39301;BME280;25019;42.626;23.380;2023-05-29T03:33:35;94152.78;;;12.01;100.00
39301;BME280;25019;42.626;23.380;2023-05-29T03:36:08;94049.66;;;11.44;100.00
39301;BME280;25019;42.626;23.380;2023-05-29T03:38:34;94226.38;;;12.69;100.00
39301;BME280;25019;42.626;23.380;2023-05-29T03:41:00;94261.56;;;12.97;100.00
39301;BME280;25019;42.626;23.380;2023-05-29T03:43:26;94174.97;;;12.53;100.00
39301;BME280;25019;42.626;23.380;2023-05-29T03:45:52;94253.03;;;13.05;100.00
39301;BME280;25019;42.626;23.380;2023-05-29T03:48:18;94263.19;;;13.18;100.00
39301;BME280;25019;42.626;23.380;2023-05-29T03:50:46;94247.19;;;13.24;100.00
39301;BME280;25019;42.626;23.380;2023-05-29T03:53:12;94253.03;;;13.46;100.00
39301;BME280;25019;42.626;23.380;2023-05-29T03:55:38;94198.53;;;13.78;100.00
39301;BME280;25019;42.626;23.380;2023-05-29T03:58:07;94153.59;;;13.96;100.00
39301;BME280;25019;42.626;23.380;2023-05-29T04:00:32;94257.47;;;14.93;100.00
39301;BME280;25019;42.626;23.380;2023-05-29T04:03:01;94256.66;;;15.56;100.00
39301;BME280;25019;42.626;23.380;2023-05-29T04:05:27;94111.69;;;15.25;100.00
39301;BME280;25019;42.626;23.380;2023-05-29T04:07:53;94121.78;;;15.77;100.00
39301;BME280;25019;42.626;23.380;2023-05-29T04:10:19;94273.38;;;16.84;100.00
39301;BME280;25019;42.626;23.380;2023-05-29T04:12:44;94275.06;;;16.99;100.00
39301;BME280;25019;42.626;23.380;2023-05-29T04:15:10;94251.50;;;16.96;100.00
39301;BME280;25019;42.626;23.380;2023-05-29T04:17:36;94128.72;;;16.21;100.00
39301;BME280;25019;42.626;23.380;2023-05-29T04:20:02;94270.38;;;17.24;100.00
39301;BME280;25019;42.626;23.380;2023-05-29T04:22:36;94278.06;;;17.30;100.00
39301;BME280;25019;42.626;23.380;2023-05-29T04:25:03;94270.97;;;17.20;100.00
39301;BME280;25019;42.626;23.380;2023-05-29T04:27:30;94208.72;;;16.66;100.00
39301;BME280;25019;42.626;23.380;2023-05-29T04:29:58;94274.09;;;16.89;100.00
39301;BME280;25019;42.626;23.380;2023-05-29T04:32:24;94268.28;;;16.63;100.00
39301;BME280;25019;42.626;23.380;2023-05-29T04:34:50;94276.75;;;16.51;100.00
39301;BME280;25019;42.626;23.380;2023-05-29T04:37:16;94280.81;;;16.48;100.00
39301;BME280;25019;42.626;23.380;2023-05-29T04:39:43;94274.56;;;16.34;100.00
39301;BME280;25019;42.626;23.380;2023-05-29T04:42:10;94269.66;;;16.41;100.00
39301;BME280;25019;42.626;23.380;2023-05-29T04:44:36;94274.59;;;16.53;100.00
39301;BME280;25019;42.626;23.380;2023-05-29T04:47:02;94211.44;;;16.28;100.00
39301;BME280;25019;42.626;23.380;2023-05-29T04:49:28;94285.00;;;16.98;100.00
39301;BME280;25019;42.626;23.380;2023-05-29T04:51:54;94272.06;;;17.19;100.00
39301;BME280;25019;42.626;23.380;2023-05-29T04:54:22;94287.00;;;17.26;100.00
39301;BME280;25019;42.626;23.380;2023-05-29T04:56:51;94285.59;;;17.28;100.00
39301;BME280;25019;42.626;23.380;2023-05-29T04:59:18;94288.50;;;17.32;100.00
39301;BME280;25019;42.626;23.380;2023-05-29T05:01:44;94295.13;;;17.54;100.00
39301;BME280;25019;42.626;23.380;2023-05-29T05:04:11;94208.94;;;17.22;100.00
39301;BME280;25019;42.626;23.380;2023-05-29T05:06:37;94311.19;;;17.87;100.00
39301;BME280;25019;42.626;23.380;2023-05-29T05:09:03;94301.94;;;17.93;100.00
39301;BME280;25019;42.626;23.380;2023-05-29T05:11:29;94238.97;;;17.71;100.00
39301;BME280;25019;42.626;23.380;2023-05-29T05:13:55;94245.25;;;17.94;100.00
39301;BME280;25019;42.626;23.380;2023-05-29T05:16:20;94314.22;;;18.55;100.00
39301;BME280;25019;42.626;23.380;2023-05-29T05:18:46;94309.16;;;18.67;100.00
39301;BME280;25019;42.626;23.380;2023-05-29T05:21:12;94235.81;;;18.11;100.00
39301;BME280;25019;42.626;23.380;2023-05-29T05:23:38;94225.03;;;17.97;100.00
39301;BME280;25019;42.626;23.380;2023-05-29T05:26:04;94316.91;;;18.55;100.00
39301;BME280;25019;42.626;23.380;2023-05-29T05:28:32;94312.22;;;18.61;100.00
39301;BME280;25019;42.626;23.380;2023-05-29T05:30:59;94241.50;;;18.23;100.00
39301;BME280;25019;42.626;23.380;2023-05-29T05:33:27;94312.13;;;18.66;100.00
39301;BME280;25019;42.626;23.380;2023-05-29T05:35:52;94313.09;;;19.21;100.00
39301;BME280;25019;42.626;23.380;2023-05-29T05:38:18;94313.44;;;19.96;100.00
39301;BME280;25019;42.626;23.380;2023-05-29T05:40:44;94307.69;;;19.66;100.00
39301;BME280;25019;42.626;23.380;2023-05-29T05:43:15;94299.44;;;19.63;100.00
39301;BME280;25019;42.626;23.380;2023-05-29T05:46:03;94300.16;;;20.00;100.00
39301;BME280;25019;42.626;23.380;2023-05-29T05:48:30;94301.31;;;20.16;100.00
39301;BME280;25019;42.626;23.380;2023-05-29T05:50:56;94300.47;;;20.39;100.00
39301;BME280;25019;42.626;23.380;2023-05-29T05:53:22;94286.66;;;20.40;100.00
39301;BME280;25019;42.626;23.380;2023-05-29T05:55:48;94218.44;;;20.57;95.05
39301;BME280;25019;42.626;23.380;2023-05-29T05:58:14;94305.84;;;21.14;91.07
39301;BME280;25019;42.626;23.380;2023-05-29T06:00:41;94301.53;;;20.87;89.06
39301;BME280;25019;42.626;23.380;2023-05-29T06:03:09;94311.72;;;20.41;89.77
39301;BME280;25019;42.626;23.380;2023-05-29T06:05:55;94311.19;;;20.21;90.75
39301;BME280;25019;42.626;23.380;2023-05-29T06:08:21;94219.19;;;19.42;92.16
39301;BME280;25019;42.626;23.380;2023-05-29T06:10:46;94306.38;;;19.86;92.10
39301;BME280;25019;42.626;23.380;2023-05-29T06:13:12;94304.88;;;19.71;91.78
39301;BME280;25019;42.626;23.380;2023-05-29T06:15:46;94253.88;;;19.21;91.99
39301;BME280;25019;42.626;23.380;2023-05-29T06:18:13;94299.56;;;19.57;91.38
39301;BME280;25019;42.626;23.380;2023-05-29T06:20:39;94315.25;;;19.55;93.20
39301;BME280;25019;42.626;23.380;2023-05-29T06:23:04;94320.13;;;19.53;93.08
39301;BME280;25019;42.626;23.380;2023-05-29T06:25:31;94241.38;;;18.79;94.51
39301;BME280;25019;42.626;23.380;2023-05-29T06:28:02;94321.50;;;19.42;94.93
39301;BME280;25019;42.626;23.380;2023-05-29T06:30:31;94260.56;;;18.86;95.23
39301;BME280;25019;42.626;23.380;2023-05-29T06:32:56;94318.75;;;19.33;95.51
39301;BME280;25019;42.626;23.380;2023-05-29T06:35:27;94314.03;;;19.39;94.86
39301;BME280;25019;42.626;23.380;2023-05-29T06:37:53;94289.47;;;19.40;94.64
39301;BME280;25019;42.626;23.380;2023-05-29T06:40:20;94293.03;;;19.81;91.80
39301;BME280;25019;42.626;23.380;2023-05-29T06:42:45;94308.03;;;20.28;88.05
39301;BME280;25019;42.626;23.380;2023-05-29T06:45:14;94289.13;;;20.19;86.76
39301;BME280;25019;42.626;23.380;2023-05-29T06:47:41;94224.09;;;20.12;86.28
39301;BME280;25019;42.626;23.380;2023-05-29T06:50:07;94317.69;;;20.78;83.62
39301;BME280;25019;42.626;23.380;2023-05-29T06:52:33;94260.09;;;20.16;84.62
39301;BME280;25019;42.626;23.380;2023-05-29T06:55:11;94269.38;;;19.92;84.71
39301;BME280;25019;42.626;23.380;2023-05-29T06:57:37;94310.59;;;20.33;84.25
39301;BME280;25019;42.626;23.380;2023-05-29T07:00:05;94316.47;;;20.35;85.99
39301;BME280;25019;42.626;23.380;2023-05-29T07:02:33;94303.63;;;20.41;83.61
39301;BME280;25019;42.626;23.380;2023-05-29T07:04:58;94315.78;;;20.70;81.52
39301;BME280;25019;42.626;23.380;2023-05-29T07:07:25;94304.84;;;20.75;78.37
39301;BME280;25019;42.626;23.380;2023-05-29T07:09:51;94306.38;;;20.58;78.83
39301;BME280;25019;42.626;23.380;2023-05-29T07:12:17;94178.97;;;19.86;80.35
39301;BME280;25019;42.626;23.380;2023-05-29T07:14:42;94316.00;;;21.00;77.55
39301;BME280;25019;42.626;23.380;2023-05-29T07:17:08;94301.22;;;20.88;76.95
39301;BME280;25019;42.626;23.380;2023-05-29T07:19:34;94316.94;;;21.30;74.83
39301;BME280;25019;42.626;23.380;2023-05-29T07:22:01;94323.28;;;21.52;75.45
39301;BME280;25019;42.626;23.380;2023-05-29T07:24:26;94314.94;;;22.01;75.10
39301;BME280;25019;42.626;23.380;2023-05-29T07:26:52;94305.69;;;22.11;73.32
39301;BME280;25019;42.626;23.380;2023-05-29T07:29:18;94322.31;;;22.30;70.74
39301;BME280;25019;42.626;23.380;2023-05-29T07:31:46;94312.63;;;21.73;71.54
39301;BME280;25019;42.626;23.380;2023-05-29T07:34:12;94321.53;;;21.56;74.59
39301;BME280;25019;42.626;23.380;2023-05-29T07:36:56;94324.91;;;21.70;73.37
39301;BME280;25019;42.626;23.380;2023-05-29T07:39:22;94317.44;;;21.67;73.19
39301;BME280;25019;42.626;23.380;2023-05-29T07:41:48;94320.75;;;21.38;73.97
39301;BME280;25019;42.626;23.380;2023-05-29T07:44:13;94279.63;;;21.32;73.05
39301;BME280;25019;42.626;23.380;2023-05-29T07:46:39;94320.91;;;21.85;72.82
39301;BME280;25019;42.626;23.380;2023-05-29T07:49:30;94315.66;;;21.80;71.97
39301;BME280;25019;42.626;23.380;2023-05-29T07:51:56;94309.00;;;22.17;71.74
39301;BME280;25019;42.626;23.380;2023-05-29T07:54:22;94299.94;;;22.21;71.08
39301;BME280;25019;42.626;23.380;2023-05-29T07:56:48;94236.09;;;21.25;71.55
39301;BME280;25019;42.626;23.380;2023-05-29T07:59:14;94231.53;;;20.90;73.72
39301;BME280;25019;42.626;23.380;2023-05-29T08:01:40;94317.88;;;21.61;73.27
39301;BME280;25019;42.626;23.380;2023-05-29T08:04:07;94311.19;;;21.76;73.30
39301;BME280;25019;42.626;23.380;2023-05-29T08:06:34;94324.59;;;21.63;73.98
39301;BME280;25019;42.626;23.380;2023-05-29T08:09:00;94294.03;;;21.54;73.26
39301;BME280;25019;42.626;23.380;2023-05-29T08:11:27;94318.31;;;21.89;71.84
39301;BME280;25019;42.626;23.380;2023-05-29T08:13:53;94306.41;;;21.90;71.72
39301;BME280;25019;42.626;23.380;2023-05-29T08:16:18;94255.59;;;21.66;72.07
39301;BME280;25019;42.626;23.380;2023-05-29T08:18:44;94311.09;;;22.11;71.35
39301;BME280;25019;42.626;23.380;2023-05-29T08:21:10;94323.00;;;22.19;71.42
39301;BME280;25019;42.626;23.380;2023-05-29T08:23:35;94317.03;;;21.95;71.01
39301;BME280;25019;42.626;23.380;2023-05-29T08:26:02;94245.78;;;21.26;72.11
39301;BME280;25019;42.626;23.380;2023-05-29T08:28:30;94317.25;;;21.46;71.92
39301;BME280;25019;42.626;23.380;2023-05-29T08:30:55;94288.38;;;21.20;74.52
39301;BME280;25019;42.626;23.380;2023-05-29T08:33:21;94328.06;;;21.46;72.03
39301;BME280;25019;42.626;23.380;2023-05-29T08:35:47;94300.25;;;21.37;71.30
39301;BME280;25019;42.626;23.380;2023-05-29T08:38:12;94319.41;;;21.97;71.44
39301;BME280;25019;42.626;23.380;2023-05-29T08:40:38;94258.09;;;21.80;69.09
39301;BME280;25019;42.626;23.380;2023-05-29T08:43:21;94313.88;;;22.32;68.50
39301;BME280;25019;42.626;23.380;2023-05-29T08:45:49;94311.56;;;22.13;68.12
39301;BME280;25019;42.626;23.380;2023-05-29T08:48:19;94155.38;;;21.32;67.20
39301;BME280;25019;42.626;23.380;2023-05-29T08:50:47;94299.00;;;22.56;67.67
39301;BME280;25019;42.626;23.380;2023-05-29T08:53:16;94306.28;;;22.25;70.30
39301;BME280;25019;42.626;23.380;2023-05-29T08:55:44;94306.44;;;21.81;71.62
39301;BME280;25019;42.626;23.380;2023-05-29T08:58:13;94308.22;;;21.68;72.62
39301;BME280;25019;42.626;23.380;2023-05-29T09:00:40;94225.81;;;21.01;74.27
39301;BME280;25019;42.626;23.380;2023-05-29T09:03:06;94295.69;;;21.29;73.29
39301;BME280;25019;42.626;23.380;2023-05-29T09:05:32;94296.13;;;21.66;72.82
39301;BME280;25019;42.626;23.380;2023-05-29T09:07:59;94206.69;;;21.32;70.92
39301;BME280;25019;42.626;23.380;2023-05-29T09:10:25;94296.41;;;22.21;69.98
39301;BME280;25019;42.626;23.380;2023-05-29T09:12:53;94233.94;;;21.83;67.59
39301;BME280;25019;42.626;23.380;2023-05-29T09:15:21;94288.84;;;22.05;68.52
39301;BME280;25019;42.626;23.380;2023-05-29T09:17:51;94278.91;;;21.88;68.14
39301;BME280;25019;42.626;23.380;2023-05-29T09:20:18;94290.38;;;21.76;67.70
39301;BME280;25019;42.626;23.380;2023-05-29T09:23:01;94276.25;;;21.70;66.83
39301;BME280;25019;42.626;23.380;2023-05-29T09:25:29;94284.81;;;21.55;68.34
39301;BME280;25019;42.626;23.380;2023-05-29T09:33:04;94275.69;;;22.34;63.20
39301;BME280;25019;42.626;23.380;2023-05-29T09:38:00;94244.63;;;22.10;63.39
39301;BME280;25019;42.626;23.380;2023-05-29T09:40:26;94263.97;;;22.21;63.12
39301;BME280;25019;42.626;23.380;2023-05-29T09:42:52;94252.03;;;22.22;63.39
39301;BME280;25019;42.626;23.380;2023-05-29T09:45:17;94222.50;;;22.08;62.54
39301;BME280;25019;42.626;23.380;2023-05-29T09:47:43;94190.22;;;22.11;62.23
39301;BME280;25019;42.626;23.380;2023-05-29T09:50:19;94254.44;;;22.74;61.39
39301;BME280;25019;42.626;23.380;2023-05-29T09:52:48;94255.72;;;22.77;60.60
39301;BME280;25019;42.626;23.380;2023-05-29T09:55:20;94199.00;;;22.59;60.00
39301;BME280;25019;42.626;23.380;2023-05-29T09:57:47;94249.84;;;22.75;60.25
39301;BME280;25019;42.626;23.380;2023-05-29T10:00:17;94227.34;;;22.62;60.86
39301;BME280;25019;42.626;23.380;2023-05-29T10:02:43;94176.38;;;22.43;60.34
39301;BME280;25019;42.626;23.380;2023-05-29T10:05:09;94174.63;;;22.59;60.95
39301;BME280;25019;42.626;23.380;2023-05-29T10:07:37;94249.66;;;22.80;59.32
39301;BME280;25019;42.626;23.380;2023-05-29T10:10:06;94252.28;;;22.68;59.34
39301;BME280;25019;42.626;23.380;2023-05-29T10:12:38;94241.34;;;22.85;60.30
39301;BME280;25019;42.626;23.380;2023-05-29T10:15:15;94178.44;;;22.67;60.27
39301;BME280;25019;42.626;23.380;2023-05-29T10:17:49;94169.59;;;22.92;60.60
39301;BME280;25019;42.626;23.380;2023-05-29T10:20:17;94233.25;;;23.40;58.71
39301;BME280;25019;42.626;23.380;2023-05-29T10:22:47;94215.06;;;23.41;59.56
39301;BME280;25019;42.626;23.380;2023-05-29T10:25:14;94232.66;;;23.34;59.80
39301;BME280;25019;42.626;23.380;2023-05-29T10:27:43;94228.06;;;23.47;59.76
39301;BME280;25019;42.626;23.380;2023-05-29T10:35:52;94228.66;;;22.98;58.67
39301;BME280;25019;42.626;23.380;2023-05-29T10:38:19;94149.91;;;22.19;58.94
39301;BME280;25019;42.626;23.380;2023-05-29T10:40:46;94131.94;;;21.93;59.14
39301;BME280;25019;42.626;23.380;2023-05-29T10:43:31;94236.75;;;22.26;61.61
39301;BME280;25019;42.626;23.380;2023-05-29T10:45:57;94226.25;;;21.94;63.69
39301;BME280;25019;42.626;23.380;2023-05-29T10:50:54;94210.03;;;21.29;70.21
39301;BME280;25019;42.626;23.380;2023-05-29T10:53:25;94246.75;;;21.13;79.25
39301;BME280;25019;42.626;23.380;2023-05-29T10:55:54;94103.16;;;19.61;92.54
39301;BME280;25019;42.626;23.380;2023-05-29T10:58:24;94129.91;;;19.17;86.38
39301;BME280;25019;42.626;23.380;2023-05-29T11:00:52;94227.22;;;19.65;86.91
39301;BME280;25019;42.626;23.380;2023-05-29T11:03:23;94228.94;;;19.60;89.16
39301;BME280;25019;42.626;23.380;2023-05-29T11:06:07;94227.25;;;19.42;92.11
39301;BME280;25019;42.626;23.380;2023-05-29T11:08:46;94173.94;;;18.98;91.04
39301;BME280;25019;42.626;23.380;2023-05-29T11:11:13;94210.09;;;19.29;91.47
39301;BME280;25019;42.626;23.380;2023-05-29T11:13:40;94206.69;;;19.46;93.55
39301;BME280;25019;42.626;23.380;2023-05-29T11:18:43;94210.88;;;19.93;95.56
39301;BME280;25019;42.626;23.380;2023-05-29T11:21:44;94207.28;;;20.15;92.10
39301;BME280;25019;42.626;23.380;2023-05-29T11:24:23;94208.59;;;20.35;90.29
39301;BME280;25019;42.626;23.380;2023-05-29T11:26:51;94196.88;;;20.48;87.62
39301;BME280;25019;42.626;23.380;2023-05-29T11:29:27;94193.38;;;20.74;86.41
39301;BME280;25019;42.626;23.380;2023-05-29T11:32:04;94187.66;;;20.58;83.32
39301;BME280;25019;42.626;23.380;2023-05-29T11:34:30;94194.72;;;20.77;79.08
39301;BME280;25019;42.626;23.380;2023-05-29T11:37:01;94195.59;;;21.16;77.80
39301;BME280;25019;42.626;23.380;2023-05-29T11:39:28;94147.81;;;21.17;79.39
39301;BME280;25019;42.626;23.380;2023-05-29T11:41:54;94186.41;;;22.04;77.54
39301;BME280;25019;42.626;23.380;2023-05-29T11:44:20;94195.19;;;22.30;73.89
39301;BME280;25019;42.626;23.380;2023-05-29T11:46:46;94181.72;;;22.22;72.40
39301;BME280;25019;42.626;23.380;2023-05-29T11:49:12;94191.63;;;21.79;72.80
39301;BME280;25019;42.626;23.380;2023-05-29T11:51:37;94190.28;;;21.46;77.57
39301;BME280;25019;42.626;23.380;2023-05-29T11:54:03;94191.00;;;21.08;79.18
39301;BME280;25019;42.626;23.380;2023-05-29T11:56:29;94209.09;;;20.72;80.34
39301;BME280;25019;42.626;23.380;2023-05-29T11:58:57;94108.56;;;19.70;81.86
39301;BME280;25019;42.626;23.380;2023-05-29T12:01:25;94222.88;;;20.27;84.98
39301;BME280;25019;42.626;23.380;2023-05-29T12:03:51;94213.31;;;20.12;85.86
39301;BME280;25019;42.626;23.380;2023-05-29T12:06:33;94215.53;;;20.10;86.19
39301;BME280;25019;42.626;23.380;2023-05-29T12:09:01;94219.28;;;19.91;84.10
39301;BME280;25019;42.626;23.380;2023-05-29T12:11:29;94049.69;;;18.74;85.85
39301;BME280;25019;42.626;23.380;2023-05-29T12:13:59;94199.81;;;19.71;86.47
39301;BME280;25019;42.626;23.380;2023-05-29T12:16:26;94223.94;;;19.76;88.76
39301;BME280;25019;42.626;23.380;2023-05-29T12:18:53;94211.56;;;19.75;88.81
39301;BME280;25019;42.626;23.380;2023-05-29T12:21:20;94218.41;;;19.82;88.37
39301;BME280;25019;42.626;23.380;2023-05-29T12:23:46;94138.13;;;19.21;86.06
39301;BME280;25019;42.626;23.380;2023-05-29T12:26:12;94037.31;;;18.64;86.37
39301;BME280;25019;42.626;23.380;2023-05-29T12:28:44;94212.06;;;19.77;87.80
39301;BME280;25019;42.626;23.380;2023-05-29T12:31:10;94203.00;;;19.73;84.94
39301;BME280;25019;42.626;23.380;2023-05-29T12:33:42;94132.25;;;19.19;85.52
39301;BME280;25019;42.626;23.380;2023-05-29T12:36:09;94208.34;;;19.65;84.13
39301;BME280;25019;42.626;23.380;2023-05-29T12:38:49;94203.59;;;19.61;83.66
39301;BME280;25019;42.626;23.380;2023-05-29T12:41:28;94211.88;;;19.74;84.27
39301;BME280;25019;42.626;23.380;2023-05-29T12:43:55;94196.63;;;19.69;85.01
39301;BME280;25019;42.626;23.380;2023-05-29T12:46:23;94040.56;;;18.52;84.16
39301;BME280;25019;42.626;23.380;2023-05-29T12:48:48;94049.69;;;18.42;83.31
39301;BME280;25019;42.626;23.380;2023-05-29T12:51:17;94143.78;;;18.87;81.90
39301;BME280;25019;42.626;23.380;2023-05-29T12:53:47;94209.75;;;18.85;85.89
39301;BME280;25019;42.626;23.380;2023-05-29T12:56:12;94214.41;;;18.56;89.53
39301;BME280;25019;42.626;23.380;2023-05-29T12:58:38;94226.47;;;18.22;97.65
39301;BME280;25019;42.626;23.380;2023-05-29T13:01:04;94206.81;;;17.52;100.00
39301;BME280;25019;42.626;23.380;2023-05-29T13:03:29;94215.25;;;16.60;100.00
39301;BME280;25019;42.626;23.380;2023-05-29T13:05:55;94139.63;;;15.86;100.00
39301;BME280;25019;42.626;23.380;2023-05-29T13:08:21;94205.41;;;16.36;100.00
39301;BME280;25019;42.626;23.380;2023-05-29T13:10:46;94204.22;;;16.23;100.00
39301;BME280;25019;42.626;23.380;2023-05-29T13:13:12;94201.81;;;15.78;100.00